Time;durP1;ratioP1;P1;durP2;ratioP2;P2;SDS_P1;SDS_P2;PMS_P1;PMS_P2;Temp;Humidity;BMP_temperature;BMP_pressure;BME280_temperature;BME280_humidity;BME280_pressure;Samples;Min_cycle;Max_cycle;Signal;HPM_P1;HPM_P2
2023/07/24 00:02:23;;;;;;;2.00;1.30;;;;;;;;;;5034988;28;20053;-76
2023/07/24 00:04:48;;;;;;;2.22;1.20;;;;;;;;;;5033355;28;20029;-76
2023/07/24 00:07:14;;;;;;;1.98;1.00;;;;;;;;;;5033588;28;20021;-77
2023/07/24 00:09:39;;;;;;;2.05;1.10;;;;;;;;;;5034929;28;20025;-76
2023/07/24 00:12:05;;;;;;;3.10;1.30;;;;;;;;;;5034870;28;20450;-75
2023/07/24 00:14:30;;;;;;;2.33;1.20;;;;;;;;;;5031461;28;20501;-76
2023/07/24 00:16:56;;;;;;;1.88;1.17;;;;;;;;;;5034691;28;20117;-75
2023/07/24 00:19:21;;;;;;;4.00;1.45;;;;;;;;;;5033429;28;20469;-76
2023/07/24 00:21:46;;;;;;;1.88;0.93;;;;;;;;;;5016489;28;20060;-75
2023/07/24 00:24:12;;;;;;;1.65;1.10;;;;;;;;;;5034736;28;20084;-76
2023/07/24 00:26:37;;;;;;;1.83;1.10;;;;;;;;;;5034623;28;20072;-76
2023/07/24 00:29:03;;;;;;;3.72;1.42;;;;;;;;;;5034306;28;20029;-76
2023/07/24 00:31:28;;;;;;;2.85;1.30;;;;;;;;;;5033399;28;20022;-76
2023/07/24 00:33:53;;;;;;;2.92;1.50;;;;;;;;;;5034576;28;20074;-75
2023/07/24 00:36:19;;;;;;;2.83;1.65;;;;;;;;;;5034294;28;20021;-76
2023/07/24 00:38:44;;;;;;;2.70;1.63;;;;;;;;;;5034418;28;20076;-76
2023/07/24 00:41:09;;;;;;;2.35;1.58;;;;;;;;;;5030748;28;20021;-76
2023/07/24 00:43:35;;;;;;;2.25;1.52;;;;;;;;;;5032826;28;20030;-76
2023/07/24 00:46:02;;;;;;;2.95;1.83;;;;;;;;;;5032832;28;20021;-76
2023/07/24 00:48:28;;;;;;;3.88;2.00;;;;;;;;;;5030895;28;20484;-76
2023/07/24 00:50:53;;;;;;;3.08;1.85;;;;;;;;;;5046109;28;20049;-76
2023/07/24 00:53:19;;;;;;;4.53;2.50;;;;;;;;;;5032884;28;20030;-76
2023/07/24 00:55:45;;;;;;;3.60;2.10;;;;;;;;;;5033934;28;20469;-76
2023/07/24 00:58:11;;;;;;;3.53;2.20;;;;;;;;;;5034466;28;20025;-76
2023/07/24 01:00:40;;;;;;;3.22;1.92;;;;;;;;;;5032947;28;20051;-76
2023/07/24 01:03:06;;;;;;;4.82;2.20;;;;;;;;;;5031456;28;20025;-76
2023/07/24 01:05:32;;;;;;;2.80;1.80;;;;;;;;;;5031342;28;20445;-76
2023/07/24 01:07:57;;;;;;;3.30;2.05;;;;;;;;;;5032291;28;20025;-76
2023/07/24 01:10:22;;;;;;;3.30;1.95;;;;;;;;;;5032347;28;20022;-76
2023/07/24 01:13:15;;;;;;;3.20;1.70;;;;;;;;;;5032424;28;20030;-76
2023/07/24 01:16:16;;;;;;;3.88;1.80;;;;;;;;;;5029665;28;20072;-75
2023/07/24 01:18:43;;;;;;;3.20;1.90;;;;;;;;;;5033571;28;20428;-75
2023/07/24 01:21:11;;;;;;;3.83;1.70;;;;;;;;;;5033659;28;20021;-75
2023/07/24 01:24:21;;;;;;;2.67;1.80;;;;;;;;;;5027792;28;20543;-76
2023/07/24 01:26:47;;;;;;;4.15;1.80;;;;;;;;;;4972214;28;20069;-76
2023/07/24 01:29:12;;;;;;;3.47;1.95;;;;;;;;;;5024822;28;20473;-76
2023/07/24 01:31:37;;;;;;;3.20;1.90;;;;;;;;;;5032032;28;20540;-76
2023/07/24 01:34:03;;;;;;;4.00;2.00;;;;;;;;;;5031911;28;20063;-76
2023/07/24 01:36:28;;;;;;;7.63;2.00;;;;;;;;;;5032074;28;20036;-76
2023/07/24 01:38:54;;;;;;;3.05;1.92;;;;;;;;;;5031939;28;20381;-76
2023/07/24 01:41:20;;;;;;;3.72;2.38;;;;;;;;;;5031674;28;20029;-76
2023/07/24 01:43:45;;;;;;;3.42;1.85;;;;;;;;;;5026793;28;20441;-77
2023/07/24 01:46:11;;;;;;;3.55;2.00;;;;;;;;;;5033077;28;20045;-76
2023/07/24 01:48:36;;;;;;;3.30;1.88;;;;;;;;;;5032998;28;20350;-76
2023/07/24 01:51:02;;;;;;;3.13;2.00;;;;;;;;;;5031642;28;20436;-76
2023/07/24 01:53:27;;;;;;;5.43;1.90;;;;;;;;;;5033063;28;20037;-75
2023/07/24 01:55:52;;;;;;;5.47;2.13;;;;;;;;;;5032917;28;20569;-76
2023/07/24 01:58:18;;;;;;;3.72;1.80;;;;;;;;;;5030918;28;20025;-76
2023/07/24 02:00:43;;;;;;;3.55;2.05;;;;;;;;;;5031607;28;20033;-76
2023/07/24 02:03:08;;;;;;;2.55;1.60;;;;;;;;;;5031272;28;20060;-75
2023/07/24 02:05:35;;;;;;;4.40;2.10;;;;;;;;;;5031292;28;20022;-76
2023/07/24 02:08:00;;;;;;;6.03;2.50;;;;;;;;;;5031619;28;20025;-76
2023/07/24 02:10:26;;;;;;;5.45;1.90;;;;;;;;;;5032538;28;20112;-77
2023/07/24 02:12:51;;;;;;;2.70;1.65;;;;;;;;;;5032519;28;20036;-77
2023/07/24 02:15:17;;;;;;;4.97;2.28;;;;;;;;;;5029954;28;20496;-76
2023/07/24 02:17:42;;;;;;;4.22;2.30;;;;;;;;;;5031484;28;20032;-76
2023/07/24 02:20:08;;;;;;;4.25;2.20;;;;;;;;;;5031180;28;20075;-76
2023/07/24 02:22:33;;;;;;;2.80;1.98;;;;;;;;;;5031400;28;20026;-76
2023/07/24 02:24:59;;;;;;;3.78;1.95;;;;;;;;;;5030993;28;20389;-76
2023/07/24 02:27:31;;;;;;;5.55;2.00;;;;;;;;;;5031215;28;20021;-77
2023/07/24 02:29:57;;;;;;;3.67;2.05;;;;;;;;;;5032315;28;20116;-77
2023/07/24 02:32:22;;;;;;;3.85;2.00;;;;;;;;;;5031505;28;20036;-76
2023/07/24 02:34:52;;;;;;;3.95;2.10;;;;;;;;;;5032395;28;20030;-76
2023/07/24 02:37:17;;;;;;;3.10;2.00;;;;;;;;;;5032646;28;20024;-76
2023/07/24 02:39:43;;;;;;;5.68;1.95;;;;;;;;;;5031048;28;20029;-77
2023/07/24 02:42:08;;;;;;;4.72;1.73;;;;;;;;;;5030928;28;20018;-77
2023/07/24 02:44:34;;;;;;;4.03;2.03;;;;;;;;;;5032245;28;20026;-78
2023/07/24 02:46:59;;;;;;;5.28;2.17;;;;;;;;;;5032254;28;20086;-78
2023/07/24 02:49:25;;;;;;;4.00;2.17;;;;;;;;;;5029387;28;20532;-78
2023/07/24 02:51:50;;;;;;;4.75;1.98;;;;;;;;;;5032013;28;20461;-78
2023/07/24 02:54:15;;;;;;;2.58;1.85;;;;;;;;;;5032383;28;20033;-78
2023/07/24 02:56:41;;;;;;;3.67;2.13;;;;;;;;;;5032041;28;20063;-78
2023/07/24 02:59:06;;;;;;;4.18;2.03;;;;;;;;;;5032113;28;20029;-77
2023/07/24 03:01:32;;;;;;;3.42;2.00;;;;;;;;;;5032160;28;20111;-78
2023/07/24 03:03:57;;;;;;;3.72;2.40;;;;;;;;;;5030747;28;20493;-77
2023/07/24 03:06:22;;;;;;;4.28;2.20;;;;;;;;;;5029178;28;20095;-78
2023/07/24 03:08:48;;;;;;;4.55;2.58;;;;;;;;;;5030643;28;20029;-78
2023/07/24 03:11:13;;;;;;;3.35;1.90;;;;;;;;;;5031864;28;20017;-78
2023/07/24 03:13:40;;;;;;;2.78;1.80;;;;;;;;;;5032059;28;20025;-77
2023/07/24 03:16:06;;;;;;;3.30;2.03;;;;;;;;;;5031897;28;20112;-78
2023/07/24 03:18:31;;;;;;;6.88;2.20;;;;;;;;;;5030657;28;20121;-78
2023/07/24 03:20:58;;;;;;;5.80;2.67;;;;;;;;;;5014425;28;20030;-77
2023/07/24 03:23:24;;;;;;;4.03;2.35;;;;;;;;;;5029031;28;20553;-78
2023/07/24 03:25:49;;;;;;;3.22;2.05;;;;;;;;;;5031794;28;20113;-77
2023/07/24 03:28:15;;;;;;;4.20;2.03;;;;;;;;;;5034286;28;20024;-77
2023/07/24 03:30:40;;;;;;;3.58;1.85;;;;;;;;;;5035168;28;20042;-77
2023/07/24 03:33:06;;;;;;;3.65;2.25;;;;;;;;;;5035619;28;20104;-77
2023/07/24 03:35:32;;;;;;;3.60;1.95;;;;;;;;;;5034417;28;20041;-77
2023/07/24 03:37:57;;;;;;;7.13;2.50;;;;;;;;;;5034539;28;20124;-78
2023/07/24 03:40:22;;;;;;;3.67;2.30;;;;;;;;;;5035136;28;20082;-77
2023/07/24 03:42:48;;;;;;;3.65;2.20;;;;;;;;;;5037189;28;20013;-78
2023/07/24 03:45:13;;;;;;;3.15;2.03;;;;;;;;;;5035494;28;20017;-77
2023/07/24 03:47:39;;;;;;;3.90;2.65;;;;;;;;;;5033875;28;20381;-77
2023/07/24 03:50:04;;;;;;;4.57;2.20;;;;;;;;;;5035304;28;20107;-78
2023/07/24 03:52:30;;;;;;;4.85;2.25;;;;;;;;;;5033680;28;20029;-77
2023/07/24 03:54:55;;;;;;;3.15;2.10;;;;;;;;;;5035304;28;20021;-77
2023/07/24 03:57:21;;;;;;;3.33;1.90;;;;;;;;;;5032836;28;20029;-77
2023/07/24 03:59:46;;;;;;;3.30;2.00;;;;;;;;;;5037616;28;20580;-77
2023/07/24 04:02:12;;;;;;;2.88;1.85;;;;;;;;;;5035164;28;20013;-77
2023/07/24 04:04:37;;;;;;;3.58;2.00;;;;;;;;;;5034972;28;20451;-77
2023/07/24 04:07:04;;;;;;;3.95;1.85;;;;;;;;;;5033398;28;20037;-77
2023/07/24 04:09:29;;;;;;;3.95;2.00;;;;;;;;;;5033865;28;20021;-77
2023/07/24 04:11:55;;;;;;;3.47;2.22;;;;;;;;;;5028852;28;20488;-77
2023/07/24 04:14:20;;;;;;;4.85;2.38;;;;;;;;;;5034429;28;20448;-77
2023/07/24 04:16:45;;;;;;;5.55;2.13;;;;;;;;;;5034905;28;20443;-77
2023/07/24 04:19:11;;;;;;;2.97;1.98;;;;;;;;;;5034742;28;20021;-77
2023/07/24 04:21:36;;;;;;;3.60;2.08;;;;;;;;;;5034693;28;20021;-77
2023/07/24 04:24:02;;;;;;;5.50;2.15;;;;;;;;;;5034660;28;20029;-77
2023/07/24 04:26:27;;;;;;;4.90;2.38;;;;;;;;;;5034430;28;20056;-77
2023/07/24 04:28:53;;;;;;;3.67;2.20;;;;;;;;;;5034502;28;20029;-77
2023/07/24 04:31:18;;;;;;;3.17;1.90;;;;;;;;;;5031967;28;20044;-78
2023/07/24 04:33:43;;;;;;;3.95;1.95;;;;;;;;;;5034861;28;20040;-77
2023/07/24 04:36:09;;;;;;;4.50;2.03;;;;;;;;;;5034269;28;20030;-77
2023/07/24 04:38:34;;;;;;;3.40;2.13;;;;;;;;;;5034451;28;20021;-77
2023/07/24 04:41:01;;;;;;;3.15;2.10;;;;;;;;;;5032738;28;20017;-77
2023/07/24 04:43:27;;;;;;;3.50;2.20;;;;;;;;;;5032982;28;20033;-78
2023/07/24 04:45:52;;;;;;;3.35;2.00;;;;;;;;;;5034186;28;20029;-77
2023/07/24 04:48:17;;;;;;;3.85;2.53;;;;;;;;;;5025721;28;20026;-77
2023/07/24 04:50:43;;;;;;;4.85;2.30;;;;;;;;;;5033016;28;20021;-77
2023/07/24 04:53:08;;;;;;;3.35;2.25;;;;;;;;;;5033197;28;20022;-77
2023/07/24 04:55:34;;;;;;;4.40;2.85;;;;;;;;;;5034133;28;20112;-77
2023/07/24 04:57:59;;;;;;;5.10;2.72;;;;;;;;;;5034027;28;20018;-77
2023/07/24 05:00:26;;;;;;;4.43;2.50;;;;;;;;;;5034005;28;20072;-77
2023/07/24 05:02:51;;;;;;;3.55;2.15;;;;;;;;;;5033794;28;20030;-77
2023/07/24 05:05:17;;;;;;;4.60;2.65;;;;;;;;;;5030738;28;20109;-77
2023/07/24 05:07:42;;;;;;;4.88;2.58;;;;;;;;;;5032407;28;20041;-77
2023/07/24 05:10:07;;;;;;;4.88;3.22;;;;;;;;;;5032622;28;20108;-77
2023/07/24 05:12:33;;;;;;;4.75;3.15;;;;;;;;;;5033910;28;20026;-77
2023/07/24 05:14:58;;;;;;;6.38;3.22;;;;;;;;;;5032288;28;20025;-78
2023/07/24 05:17:23;;;;;;;6.72;3.70;;;;;;;;;;5033508;28;20032;-77
2023/07/24 05:19:49;;;;;;;6.72;3.10;;;;;;;;;;5033690;28;20107;-77
2023/07/24 05:22:14;;;;;;;4.80;3.17;;;;;;;;;;5032954;28;20031;-77
2023/07/24 05:24:40;;;;;;;5.43;2.92;;;;;;;;;;5033622;28;20060;-77
2023/07/24 05:27:05;;;;;;;5.00;3.10;;;;;;;;;;5033376;28;20112;-77
2023/07/24 05:29:31;;;;;;;4.20;2.85;;;;;;;;;;5031956;28;20029;-77
2023/07/24 05:31:57;;;;;;;4.40;2.83;;;;;;;;;;5031942;28;20504;-77
2023/07/24 05:34:22;;;;;;;4.57;2.97;;;;;;;;;;5032047;28;20370;-78
2023/07/24 05:36:48;;;;;;;5.80;3.05;;;;;;;;;;5032126;28;20390;-77
2023/07/24 05:39:13;;;;;;;7.18;3.25;;;;;;;;;;5031713;28;20029;-78
2023/07/24 05:41:38;;;;;;;4.43;3.05;;;;;;;;;;5033457;28;20021;-77
2023/07/24 05:44:04;;;;;;;5.07;3.00;;;;;;;;;;5031747;28;20048;-77
2023/07/24 05:46:29;;;;;;;5.82;3.67;;;;;;;;;;5031870;28;20025;-77
2023/07/24 05:48:56;;;;;;;6.88;4.03;;;;;;;;;;5032644;28;20048;-77
2023/07/24 05:51:21;;;;;;;5.28;3.58;;;;;;;;;;5031594;28;20037;-77
2023/07/24 05:53:47;;;;;;;4.85;3.05;;;;;;;;;;5033032;28;20029;-77
2023/07/24 05:56:12;;;;;;;5.35;3.40;;;;;;;;;;5032583;28;20444;-77
2023/07/24 05:58:37;;;;;;;4.88;3.55;;;;;;;;;;5033313;28;20493;-77
2023/07/24 06:01:03;;;;;;;6.93;3.80;;;;;;;;;;5031496;28;20101;-77
2023/07/24 06:03:28;;;;;;;9.23;4.13;;;;;;;;;;5031486;28;20017;-78
2023/07/24 06:05:54;;;;;;;5.97;3.75;;;;;;;;;;5032769;28;20483;-78
2023/07/24 06:08:21;;;;;;;8.80;4.20;;;;;;;;;;5032605;28;20036;-76
2023/07/24 06:10:48;;;;;;;7.65;4.30;;;;;;;;;;5031347;28;20425;-78
2023/07/24 06:13:14;;;;;;;7.95;3.75;;;;;;;;;;5029539;28;20053;-77
2023/07/24 06:15:40;;;;;;;5.85;4.43;;;;;;;;;;5032840;28;20389;-77
2023/07/24 06:18:05;;;;;;;7.78;3.85;;;;;;;;;;5032305;28;20025;-77
2023/07/24 06:20:31;;;;;;;6.28;4.40;;;;;;;;;;5031482;28;20021;-77
2023/07/24 06:22:56;;;;;;;6.82;3.97;;;;;;;;;;5032437;28;20092;-77
2023/07/24 06:25:21;;;;;;;6.78;4.55;;;;;;;;;;5032636;28;20033;-77
2023/07/24 06:27:47;;;;;;;7.85;4.78;;;;;;;;;;5032306;28;20024;-77
2023/07/24 06:30:12;;;;;;;6.13;4.28;;;;;;;;;;5045079;28;20040;-77
2023/07/24 06:32:37;;;;;;;7.43;5.38;;;;;;;;;;5030889;28;20159;-77
2023/07/24 06:35:03;;;;;;;6.55;4.15;;;;;;;;;;5031086;28;20036;-77
2023/07/24 06:37:28;;;;;;;7.05;4.07;;;;;;;;;;5032289;28;20075;-78
2023/07/24 06:39:54;;;;;;;8.18;4.57;;;;;;;;;;5030720;28;20116;-77
2023/07/24 06:42:19;;;;;;;7.43;4.93;;;;;;;;;;5031019;28;20017;-77
2023/07/24 06:44:44;;;;;;;9.00;5.65;;;;;;;;;;5032314;28;20493;-77
2023/07/24 06:47:10;;;;;;;8.20;5.28;;;;;;;;;;5027918;28;20108;-77
2023/07/24 06:49:35;;;;;;;8.50;5.75;;;;;;;;;;5032017;28;20036;-77
2023/07/24 06:52:01;;;;;;;7.25;4.80;;;;;;;;;;5030864;28;20477;-78
2023/07/24 06:54:26;;;;;;;7.68;5.18;;;;;;;;;;5032122;28;20029;-77
2023/07/24 06:56:52;;;;;;;9.23;6.40;;;;;;;;;;5031204;28;20064;-77
2023/07/24 06:59:17;;;;;;;11.00;6.22;;;;;;;;;;5030676;28;20197;-77
2023/07/24 07:01:42;;;;;;;11.93;6.78;;;;;;;;;;5033611;28;20036;-77
2023/07/24 07:04:08;;;;;;;12.82;7.68;;;;;;;;;;5034686;28;20025;-77
2023/07/24 07:06:33;;;;;;;10.77;7.25;;;;;;;;;;5034854;28;20048;-77
2023/07/24 07:08:58;;;;;;;10.32;6.55;;;;;;;;;;5034825;28;20021;-77
2023/07/24 07:11:24;;;;;;;10.60;6.25;;;;;;;;;;5034767;28;20029;-77
2023/07/24 07:13:49;;;;;;;9.85;6.95;;;;;;;;;;5035765;28;20431;-78
2023/07/24 07:16:16;;;;;;;10.43;7.25;;;;;;;;;;5034800;28;20029;-77
2023/07/24 07:18:42;;;;;;;11.90;7.78;;;;;;;;;;5018328;28;20060;-77
2023/07/24 07:21:07;;;;;;;12.95;7.80;;;;;;;;;;5034407;28;20056;-77
2023/07/24 07:23:32;;;;;;;10.82;7.63;;;;;;;;;;5034529;28;20544;-77
2023/07/24 07:25:58;;;;;;;10.32;6.75;;;;;;;;;;5034939;28;20017;-78
2023/07/24 07:28:23;;;;;;;12.05;7.70;;;;;;;;;;5034063;28;20033;-78
2023/07/24 07:30:48;;;;;;;12.52;7.65;;;;;;;;;;5035744;28;20057;-77
2023/07/24 07:33:14;;;;;;;9.25;6.95;;;;;;;;;;5035486;28;20040;-78
2023/07/24 07:35:39;;;;;;;11.30;7.78;;;;;;;;;;5034759;28;20473;-78
2023/07/24 07:38:05;;;;;;;9.70;7.00;;;;;;;;;;5032012;28;20477;-78
2023/07/24 07:40:30;;;;;;;10.98;7.30;;;;;;;;;;5034119;28;20029;-77
2023/07/24 07:42:56;;;;;;;11.25;7.85;;;;;;;;;;5035520;28;20466;-78
2023/07/24 07:45:23;;;;;;;11.77;8.10;;;;;;;;;;5034011;28;20505;-78
2023/07/24 07:47:49;;;;;;;11.75;7.32;;;;;;;;;;5034238;28;20032;-77
2023/07/24 07:50:14;;;;;;;10.45;7.40;;;;;;;;;;5034059;28;20100;-77
2023/07/24 07:52:40;;;;;;;10.50;8.10;;;;;;;;;;5033882;28;20121;-77
2023/07/24 07:55:06;;;;;;;11.27;7.13;;;;;;;;;;5031067;28;20588;-77
2023/07/24 07:57:36;;;;;;;10.10;7.05;;;;;;;;;;5035129;28;20025;-78
2023/07/24 08:00:08;;;;;;;12.68;6.88;;;;;;;;;;5033854;28;20029;-77
2023/07/24 08:02:34;;;;;;;13.82;7.35;;;;;;;;;;5035167;28;20030;-78
2023/07/24 08:04:59;;;;;;;11.15;7.32;;;;;;;;;;5033570;28;20033;-78
2023/07/24 08:07:24;;;;;;;13.80;7.40;;;;;;;;;;5033827;28;20036;-77
2023/07/24 08:09:50;;;;;;;10.02;7.00;;;;;;;;;;5034912;28;20025;-77
2023/07/24 08:12:15;;;;;;;7.97;6.30;;;;;;;;;;5029631;28;20025;-77
2023/07/24 08:14:41;;;;;;;8.55;6.68;;;;;;;;;;5033057;28;20477;-77
2023/07/24 08:17:06;;;;;;;12.25;7.65;;;;;;;;;;5033491;28;20047;-78
2023/07/24 08:19:32;;;;;;;8.77;6.57;;;;;;;;;;5034701;28;20100;-78
2023/07/24 08:21:57;;;;;;;8.70;6.55;;;;;;;;;;5033463;28;20017;-77
2023/07/24 08:24:22;;;;;;;9.45;7.43;;;;;;;;;;5033510;28;20032;-77
2023/07/24 08:26:48;;;;;;;8.60;7.10;;;;;;;;;;5034611;28;20029;-77
2023/07/24 08:29:13;;;;;;;10.10;7.40;;;;;;;;;;5032960;28;20021;-77
2023/07/24 08:31:41;;;;;;;8.07;6.63;;;;;;;;;;5034483;28;20103;-77
2023/07/24 08:34:06;;;;;;;11.30;8.07;;;;;;;;;;5034589;28;20463;-77
2023/07/24 08:36:32;;;;;;;9.40;7.50;;;;;;;;;;5034282;28;20037;-78
2023/07/24 08:38:57;;;;;;;10.05;7.30;;;;;;;;;;5034399;28;20393;-78
2023/07/24 08:41:23;;;;;;;10.57;7.32;;;;;;;;;;5034356;28;20026;-77
2023/07/24 08:43:51;;;;;;;9.38;7.35;;;;;;;;;;5033125;28;20032;-77
2023/07/24 08:46:17;;;;;;;12.35;7.90;;;;;;;;;;5032880;28;20112;-77
2023/07/24 08:48:43;;;;;;;9.35;7.35;;;;;;;;;;5032849;28;20029;-78
2023/07/24 08:51:10;;;;;;;12.52;8.40;;;;;;;;;;5032777;28;20022;-77
2023/07/24 08:53:38;;;;;;;10.32;8.35;;;;;;;;;;5034286;28;20025;-78
2023/07/24 08:56:04;;;;;;;12.05;7.68;;;;;;;;;;5032777;28;20021;-77
2023/07/24 08:58:29;;;;;;;10.13;7.50;;;;;;;;;;5032857;28;20025;-77
2023/07/24 09:01:01;;;;;;;9.48;7.80;;;;;;;;;;5014929;28;20385;-77
2023/07/24 09:03:27;;;;;;;9.65;7.88;;;;;;;;;;5032549;28;20028;-77
2023/07/24 09:05:53;;;;;;;14.50;8.95;;;;;;;;;;5033801;28;20021;-77
2023/07/24 09:08:34;;;;;;;9.15;7.45;;;;;;;;;;5016151;28;20026;-77
2023/07/24 09:11:00;;;;;;;10.30;8.75;;;;;;;;;;5040871;28;20440;-77
2023/07/24 09:13:27;;;;;;;11.20;8.00;;;;;;;;;;5032649;28;20441;-77
2023/07/24 09:15:53;;;;;;;10.80;7.70;;;;;;;;;;5032490;28;20500;-77
2023/07/24 09:18:19;;;;;;;10.90;8.18;;;;;;;;;;5032014;28;20036;-77
2023/07/24 09:20:44;;;;;;;10.68;8.00;;;;;;;;;;5033605;28;20017;-77
2023/07/24 09:23:11;;;;;;;9.02;7.07;;;;;;;;;;5033586;28;20386;-77
2023/07/24 09:25:39;;;;;;;8.90;7.63;;;;;;;;;;5031436;28;20101;-77
2023/07/24 09:28:16;;;;;;;9.48;6.57;;;;;;;;;;5033407;28;20079;-77
2023/07/24 09:30:43;;;;;;;9.48;7.07;;;;;;;;;;5032287;28;20033;-77
2023/07/24 09:33:09;;;;;;;8.32;6.85;;;;;;;;;;5031866;28;20037;-77
2023/07/24 09:35:34;;;;;;;8.63;6.80;;;;;;;;;;5028891;28;20034;-77
2023/07/24 09:38:08;;;;;;;8.55;6.78;;;;;;;;;;5030978;28;20099;-77
2023/07/24 09:40:40;;;;;;;8.13;6.43;;;;;;;;;;5031927;28;20028;-77
2023/07/24 09:43:22;;;;;;;9.15;6.50;;;;;;;;;;5032026;28;20385;-77
2023/07/24 09:45:49;;;;;;;8.27;6.93;;;;;;;;;;5033209;28;20065;-77
2023/07/24 09:48:16;;;;;;;11.35;7.47;;;;;;;;;;5033141;28;20410;-78
2023/07/24 09:50:45;;;;;;;9.07;7.72;;;;;;;;;;5031792;28;20392;-77
2023/07/24 09:53:31;;;;;;;8.98;7.38;;;;;;;;;;5031030;28;20112;-78
2023/07/24 09:56:04;;;;;;;8.80;6.15;;;;;;;;;;5031685;28;20504;-77
2023/07/24 09:58:29;;;;;;;7.70;6.57;;;;;;;;;;5032996;28;20025;-77
2023/07/24 10:00:55;;;;;;;9.23;6.97;;;;;;;;;;5031565;28;20029;-77
2023/07/24 10:03:22;;;;;;;9.32;6.75;;;;;;;;;;5032776;28;20056;-78
2023/07/24 10:05:48;;;;;;;9.40;7.82;;;;;;;;;;5032302;28;20033;-77
2023/07/24 10:08:18;;;;;;;8.85;7.25;;;;;;;;;;5032831;28;20025;-77
2023/07/24 10:10:44;;;;;;;9.15;6.93;;;;;;;;;;5028465;28;20499;-77
2023/07/24 10:13:13;;;;;;;7.72;6.85;;;;;;;;;;5034682;28;20045;-77
2023/07/24 10:15:39;;;;;;;9.35;7.50;;;;;;;;;;5026026;28;20426;-77
2023/07/24 10:18:09;;;;;;;10.68;7.50;;;;;;;;;;5032682;28;20033;-77
2023/07/24 10:20:36;;;;;;;10.68;7.10;;;;;;;;;;5025829;28;20052;-77
2023/07/24 10:23:06;;;;;;;10.07;6.90;;;;;;;;;;5031212;28;20044;-77
2023/07/24 10:25:34;;;;;;;9.63;6.65;;;;;;;;;;5032481;28;20027;-77
2023/07/24 10:28:07;;;;;;;11.35;7.32;;;;;;;;;;5031847;28;20036;-77
2023/07/24 10:30:34;;;;;;;9.63;7.00;;;;;;;;;;5032326;28;20053;-77
2023/07/24 10:33:05;;;;;;;8.73;7.07;;;;;;;;;;5032283;28;20436;-78
2023/07/24 10:35:41;;;;;;;9.05;6.72;;;;;;;;;;5032107;28;20025;-78
2023/07/24 10:38:06;;;;;;;9.70;7.03;;;;;;;;;;5032005;28;20013;-77
2023/07/24 10:40:33;;;;;;;8.80;6.15;;;;;;;;;;5031067;28;20431;-77
2023/07/24 10:43:10;;;;;;;9.18;6.30;;;;;;;;;;5032357;28;20026;-77
2023/07/24 10:45:40;;;;;;;10.00;5.90;;;;;;;;;;5030229;28;20037;-77
2023/07/24 10:48:06;;;;;;;8.35;5.25;;;;;;;;;;5023664;28;20724;-77
2023/07/24 10:50:43;;;;;;;7.85;5.57;;;;;;;;;;5030870;28;20057;-77
2023/07/24 10:53:15;;;;;;;8.43;6.10;;;;;;;;;;5023476;28;20021;-77
2023/07/24 10:55:44;;;;;;;7.68;5.80;;;;;;;;;;5030641;28;20547;-77
2023/07/24 10:58:12;;;;;;;7.03;5.57;;;;;;;;;;5031056;28;20053;-77
2023/07/24 11:00:41;;;;;;;8.70;6.05;;;;;;;;;;5030498;28;20032;-77
2023/07/24 11:03:14;;;;;;;7.40;5.10;;;;;;;;;;5030897;28;20022;-77
2023/07/24 11:05:44;;;;;;;7.45;4.50;;;;;;;;;;5028838;28;20082;-77
2023/07/24 11:08:14;;;;;;;8.68;5.50;;;;;;;;;;5030741;28;20120;-78
2023/07/24 11:10:44;;;;;;;6.82;5.65;;;;;;;;;;5026888;28;20076;-77
2023/07/24 11:13:11;;;;;;;7.13;4.85;;;;;;;;;;5033447;28;20041;-77
2023/07/24 11:15:36;;;;;;;8.38;5.50;;;;;;;;;;5020033;28;20028;-77
2023/07/24 11:18:02;;;;;;;7.55;5.00;;;;;;;;;;5022838;28;20061;-78
2023/07/24 11:20:27;;;;;;;8.38;5.72;;;;;;;;;;5030035;28;20022;-77
2023/07/24 11:22:53;;;;;;;8.80;5.60;;;;;;;;;;5032120;28;20020;-78
2023/07/24 11:25:18;;;;;;;6.80;4.82;;;;;;;;;;5031920;28;20028;-77
2023/07/24 11:27:44;;;;;;;7.18;5.25;;;;;;;;;;5031136;28;20022;-77
2023/07/24 11:30:13;;;;;;;8.45;5.55;;;;;;;;;;5030498;28;20133;-77
2023/07/24 11:32:40;;;;;;;6.95;5.50;;;;;;;;;;5030395;28;20539;-78
2023/07/24 11:35:07;;;;;;;8.90;6.05;;;;;;;;;;5029140;28;20116;-77
2023/07/24 11:37:33;;;;;;;8.68;6.57;;;;;;;;;;5030549;28;20196;-78
2023/07/24 11:40:08;;;;;;;9.32;6.53;;;;;;;;;;5030493;28;20056;-77
2023/07/24 11:42:36;;;;;;;8.55;5.72;;;;;;;;;;5030580;28;20024;-77
2023/07/24 11:45:02;;;;;;;8.48;6.70;;;;;;;;;;5031868;28;20385;-78
2023/07/24 11:47:29;;;;;;;9.75;7.55;;;;;;;;;;5032372;28;20116;-77
2023/07/24 11:49:59;;;;;;;8.48;6.65;;;;;;;;;;5034064;28;20390;-78
2023/07/24 11:52:25;;;;;;;9.05;6.28;;;;;;;;;;5017434;28;20469;-78
2023/07/24 11:55:00;;;;;;;11.02;6.57;;;;;;;;;;5035232;28;20024;-77
2023/07/24 11:57:27;;;;;;;9.90;6.13;;;;;;;;;;5033825;28;20544;-77
2023/07/24 11:59:53;;;;;;;8.15;5.55;;;;;;;;;;5017669;28;20176;-77
2023/07/24 12:02:19;;;;;;;16.25;7.22;;;;;;;;;;5034977;28;20018;-79
2023/07/24 12:04:44;;;;;;;7.85;5.20;;;;;;;;;;5033853;28;20037;-77
2023/07/24 12:07:10;;;;;;;7.18;4.85;;;;;;;;;;5034777;28;20140;-77
2023/07/24 12:09:35;;;;;;;8.43;5.43;;;;;;;;;;5033587;28;20017;-77
2023/07/24 12:12:04;;;;;;;6.32;4.72;;;;;;;;;;5030031;28;20026;-78
2023/07/24 12:14:29;;;;;;;6.65;4.85;;;;;;;;;;5033018;28;20021;-77
2023/07/24 12:17:09;;;;;;;8.50;5.10;;;;;;;;;;5033441;28;20028;-78
2023/07/24 12:19:36;;;;;;;7.07;5.28;;;;;;;;;;5027054;28;20112;-77
2023/07/24 12:22:03;;;;;;;7.40;5.57;;;;;;;;;;5033460;28;20110;-77
2023/07/24 12:24:28;;;;;;;10.25;5.90;;;;;;;;;;5029847;28;20018;-78
2023/07/24 12:26:54;;;;;;;11.13;6.00;;;;;;;;;;5032214;28;20023;-77
2023/07/24 12:29:19;;;;;;;7.32;5.50;;;;;;;;;;5033166;28;20068;-77
2023/07/24 12:31:44;;;;;;;9.80;6.05;;;;;;;;;;5033488;28;20159;-77
2023/07/24 12:34:10;;;;;;;8.23;5.60;;;;;;;;;;5034725;28;20021;-78
2023/07/24 12:36:35;;;;;;;8.88;6.28;;;;;;;;;;5034309;28;20037;-78
2023/07/24 12:39:01;;;;;;;10.13;6.00;;;;;;;;;;5034809;28;20045;-77
2023/07/24 12:41:27;;;;;;;8.15;5.13;;;;;;;;;;5033134;28;20083;-77
2023/07/24 12:43:52;;;;;;;8.82;5.57;;;;;;;;;;5031053;28;20473;-77
2023/07/24 12:46:17;;;;;;;9.52;5.97;;;;;;;;;;5034422;28;20033;-78
2023/07/24 12:48:43;;;;;;;8.95;5.45;;;;;;;;;;5034258;28;20029;-78
2023/07/24 12:51:08;;;;;;;8.48;5.15;;;;;;;;;;5034190;28;20130;-77
2023/07/24 12:53:34;;;;;;;7.82;5.60;;;;;;;;;;5032872;28;20025;-77
2023/07/24 12:55:59;;;;;;;8.13;5.20;;;;;;;;;;5032967;28;20059;-78
2023/07/24 12:58:25;;;;;;;7.40;5.40;;;;;;;;;;5032203;28;20026;-77
2023/07/24 13:00:50;;;;;;;10.98;5.90;;;;;;;;;;5025489;28;20033;-78
2023/07/24 13:03:16;;;;;;;10.98;6.35;;;;;;;;;;5033908;28;20104;-78
2023/07/24 13:05:41;;;;;;;7.20;4.68;;;;;;;;;;5039702;28;20468;-78
2023/07/24 13:08:07;;;;;;;8.27;5.05;;;;;;;;;;5032750;28;20044;-78
2023/07/24 13:10:32;;;;;;;6.85;5.00;;;;;;;;;;5016093;28;20473;-78
2023/07/24 13:12:58;;;;;;;9.05;5.82;;;;;;;;;;5033771;28;20083;-78
2023/07/24 13:15:23;;;;;;;9.63;5.75;;;;;;;;;;5032378;28;20469;-78
2023/07/24 13:17:49;;;;;;;10.27;5.63;;;;;;;;;;5032298;28;20021;-78
2023/07/24 13:20:14;;;;;;;10.90;5.90;;;;;;;;;;5032223;28;20025;-78
2023/07/24 13:22:40;;;;;;;6.88;5.15;;;;;;;;;;5032488;28;20030;-78
2023/07/24 13:25:06;;;;;;;7.82;5.30;;;;;;;;;;5033570;28;20021;-78
2023/07/24 13:27:31;;;;;;;7.00;5.20;;;;;;;;;;5032305;28;20393;-78
2023/07/24 13:29:57;;;;;;;8.13;4.90;;;;;;;;;;5033475;28;20539;-78
2023/07/24 13:32:22;;;;;;;8.57;5.45;;;;;;;;;;5031738;28;20033;-78
2023/07/24 13:34:47;;;;;;;7.35;4.88;;;;;;;;;;5025141;28;20037;-78
2023/07/24 13:37:13;;;;;;;5.85;4.65;;;;;;;;;;5031984;28;20028;-79
2023/07/24 13:39:38;;;;;;;6.25;4.30;;;;;;;;;;5033416;28;20021;-78
2023/07/24 13:42:04;;;;;;;7.10;5.32;;;;;;;;;;5033371;28;20018;-78
2023/07/24 13:44:29;;;;;;;9.07;4.70;;;;;;;;;;5032338;28;20132;-78
2023/07/24 13:46:56;;;;;;;6.93;4.82;;;;;;;;;;5033256;28;20422;-78
2023/07/24 13:49:21;;;;;;;7.43;5.57;;;;;;;;;;5033076;28;20465;-78
2023/07/24 13:51:46;;;;;;;8.75;5.70;;;;;;;;;;5029657;28;20432;-78
2023/07/24 13:54:12;;;;;;;10.57;6.05;;;;;;;;;;5032967;28;20028;-79
2023/07/24 13:56:38;;;;;;;9.80;6.38;;;;;;;;;;5032032;28;20692;-78
2023/07/24 13:59:04;;;;;;;10.52;5.95;;;;;;;;;;5031564;28;20477;-79
2023/07/24 14:01:29;;;;;;;8.07;5.78;;;;;;;;;;5028211;28;20056;-79
2023/07/24 14:03:54;;;;;;;13.18;5.97;;;;;;;;;;5031554;28;20032;-78
2023/07/24 14:06:20;;;;;;;8.13;5.88;;;;;;;;;;5032711;28;20083;-78
2023/07/24 14:08:46;;;;;;;9.23;5.90;;;;;;;;;;5031835;28;20100;-78
2023/07/24 14:11:12;;;;;;;10.88;5.90;;;;;;;;;;5032323;28;20052;-78
2023/07/24 14:13:37;;;;;;;12.30;6.40;;;;;;;;;;5032452;28;20025;-79
2023/07/24 14:16:03;;;;;;;8.60;5.55;;;;;;;;;;5032684;28;20464;-78
2023/07/24 14:18:28;;;;;;;7.75;4.95;;;;;;;;;;5031206;28;20033;-79
2023/07/24 14:20:56;;;;;;;9.00;4.68;;;;;;;;;;5032506;28;20029;-78
2023/07/24 14:23:21;;;;;;;9.70;4.68;;;;;;;;;;5031514;28;20022;-78
2023/07/24 14:25:47;;;;;;;8.02;4.72;;;;;;;;;;5031075;28;20107;-78
2023/07/24 14:28:12;;;;;;;7.63;4.13;;;;;;;;;;5032497;28;20095;-79
2023/07/24 14:30:38;;;;;;;9.25;5.25;;;;;;;;;;5032215;28;20029;-78
2023/07/24 14:33:03;;;;;;;9.80;5.22;;;;;;;;;;5032400;28;21298;-79
2023/07/24 14:35:28;;;;;;;10.13;4.70;;;;;;;;;;5031097;28;20017;-78
2023/07/24 14:37:54;;;;;;;8.48;4.63;;;;;;;;;;5031119;28;20025;-79